sensor_id;sensor_type;location;lat;lon;timestamp;P1;durP1;ratioP1;P2;durP2;ratioP2
50301;SDS011;36550;50.472;19.744;2023-05-25T00:00:56;25.40;;;15.30;;
50301;SDS011;36550;50.472;19.744;2023-05-25T00:03:40;29.50;;;16.00;;
50301;SDS011;36550;50.472;19.744;2023-05-25T00:06:24;28.70;;;16.60;;
50301;SDS011;36550;50.472;19.744;2023-05-25T00:09:08;31.30;;;16.60;;
50301;SDS011;36550;50.472;19.744;2023-05-25T00:11:52;25.70;;;15.90;;
50301;SDS011;36550;50.472;19.744;2023-05-25T00:14:36;26.10;;;16.20;;
50301;SDS011;36550;50.472;19.744;2023-05-25T00:17:20;27.40;;;15.80;;
50301;SDS011;36550;50.472;19.744;2023-05-25T00:20:04;31.20;;;17.70;;
50301;SDS011;36550;50.472;19.744;2023-05-25T00:22:52;27.80;;;17.10;;
50301;SDS011;36550;50.472;19.744;2023-05-25T00:25:38;30.70;;;16.50;;
50301;SDS011;36550;50.472;19.744;2023-05-25T00:28:22;36.00;;;18.00;;
50301;SDS011;36550;50.472;19.744;2023-05-25T00:31:06;28.90;;;17.80;;
50301;SDS011;36550;50.472;19.744;2023-05-25T00:33:50;32.90;;;17.20;;
50301;SDS011;36550;50.472;19.744;2023-05-25T00:36:34;31.10;;;16.90;;
50301;SDS011;36550;50.472;19.744;2023-05-25T00:39:18;29.60;;;17.00;;
50301;SDS011;36550;50.472;19.744;2023-05-25T00:42:02;37.70;;;18.70;;
50301;SDS011;36550;50.472;19.744;2023-05-25T00:44:49;31.20;;;18.50;;
50301;SDS011;36550;50.472;19.744;2023-05-25T00:47:33;33.50;;;18.80;;
50301;SDS011;36550;50.472;19.744;2023-05-25T00:50:16;36.70;;;19.90;;
50301;SDS011;36550;50.472;19.744;2023-05-25T00:53:14;30.80;;;19.20;;
50301;SDS011;36550;50.472;19.744;2023-05-25T00:56:02;34.30;;;18.00;;
50301;SDS011;36550;50.472;19.744;2023-05-25T00:58:52;36.40;;;19.40;;
50301;SDS011;36550;50.472;19.744;2023-05-25T01:01:38;35.70;;;18.80;;
50301;SDS011;36550;50.472;19.744;2023-05-25T01:04:23;38.90;;;21.40;;
50301;SDS011;36550;50.472;19.744;2023-05-25T01:07:12;37.80;;;19.70;;
50301;SDS011;36550;50.472;19.744;2023-05-25T01:10:00;36.60;;;20.60;;
50301;SDS011;36550;50.472;19.744;2023-05-25T01:12:47;38.60;;;20.10;;
50301;SDS011;36550;50.472;19.744;2023-05-25T01:15:36;37.90;;;21.30;;
50301;SDS011;36550;50.472;19.744;2023-05-25T01:18:21;43.70;;;22.30;;
50301;SDS011;36550;50.472;19.744;2023-05-25T01:21:07;41.20;;;23.50;;
50301;SDS011;36550;50.472;19.744;2023-05-25T01:36:33;40.50;;;23.00;;
50301;SDS011;36550;50.472;19.744;2023-05-25T01:39:20;41.70;;;24.00;;
50301;SDS011;36550;50.472;19.744;2023-05-25T01:42:05;42.70;;;23.70;;
50301;SDS011;36550;50.472;19.744;2023-05-25T01:44:49;44.90;;;23.30;;
50301;SDS011;36550;50.472;19.744;2023-05-25T01:47:43;43.40;;;23.50;;
50301;SDS011;36550;50.472;19.744;2023-05-25T01:50:40;38.90;;;23.90;;
50301;SDS011;36550;50.472;19.744;2023-05-25T01:53:42;47.90;;;25.10;;
50301;SDS011;36550;50.472;19.744;2023-05-25T01:56:28;47.40;;;23.80;;
50301;SDS011;36550;50.472;19.744;2023-05-25T01:59:14;41.50;;;23.70;;
50301;SDS011;36550;50.472;19.744;2023-05-25T02:02:02;49.10;;;23.70;;
50301;SDS011;36550;50.472;19.744;2023-05-25T02:04:48;43.20;;;25.30;;
50301;SDS011;36550;50.472;19.744;2023-05-25T02:07:32;44.90;;;24.50;;
50301;SDS011;36550;50.472;19.744;2023-05-25T02:10:16;44.00;;;24.90;;
50301;SDS011;36550;50.472;19.744;2023-05-25T02:13:00;45.10;;;25.80;;
50301;SDS011;36550;50.472;19.744;2023-05-25T02:15:44;44.00;;;25.70;;
50301;SDS011;36550;50.472;19.744;2023-05-25T02:18:28;46.30;;;25.80;;
50301;SDS011;36550;50.472;19.744;2023-05-25T02:21:12;44.90;;;26.70;;
50301;SDS011;36550;50.472;19.744;2023-05-25T02:23:55;40.40;;;25.20;;
50301;SDS011;36550;50.472;19.744;2023-05-25T02:26:40;41.20;;;23.70;;
50301;SDS011;36550;50.472;19.744;2023-05-25T02:29:24;34.60;;;23.00;;
50301;SDS011;36550;50.472;19.744;2023-05-25T02:32:08;36.10;;;21.80;;
50301;SDS011;36550;50.472;19.744;2023-05-25T02:34:52;43.80;;;24.20;;
50301;SDS011;36550;50.472;19.744;2023-05-25T02:37:35;36.90;;;22.80;;
50301;SDS011;36550;50.472;19.744;2023-05-25T02:40:20;37.50;;;22.00;;
50301;SDS011;36550;50.472;19.744;2023-05-25T02:43:03;33.80;;;20.60;;
50301;SDS011;36550;50.472;19.744;2023-05-25T02:45:48;34.60;;;21.30;;
50301;SDS011;36550;50.472;19.744;2023-05-25T02:48:31;36.40;;;20.40;;
50301;SDS011;36550;50.472;19.744;2023-05-25T02:51:15;33.30;;;20.20;;
50301;SDS011;36550;50.472;19.744;2023-05-25T02:53:59;33.30;;;20.40;;
50301;SDS011;36550;50.472;19.744;2023-05-25T02:56:43;32.60;;;20.60;;
50301;SDS011;36550;50.472;19.744;2023-05-25T02:59:27;35.60;;;21.10;;
50301;SDS011;36550;50.472;19.744;2023-05-25T03:02:11;32.10;;;21.20;;
50301;SDS011;36550;50.472;19.744;2023-05-25T03:04:54;33.50;;;20.30;;
50301;SDS011;36550;50.472;19.744;2023-05-25T03:07:38;34.80;;;20.20;;
50301;SDS011;36550;50.472;19.744;2023-05-25T03:10:23;31.90;;;20.60;;
50301;SDS011;36550;50.472;19.744;2023-05-25T03:13:07;38.30;;;24.30;;
50301;SDS011;36550;50.472;19.744;2023-05-25T03:15:51;45.40;;;28.10;;
50301;SDS011;36550;50.472;19.744;2023-05-25T03:18:35;48.50;;;28.90;;
50301;SDS011;36550;50.472;19.744;2023-05-25T03:21:19;42.90;;;27.30;;
50301;SDS011;36550;50.472;19.744;2023-05-25T03:24:04;46.90;;;27.90;;
50301;SDS011;36550;50.472;19.744;2023-05-25T03:26:49;37.50;;;25.00;;
50301;SDS011;36550;50.472;19.744;2023-05-25T03:29:33;42.60;;;23.70;;
50301;SDS011;36550;50.472;19.744;2023-05-25T03:32:17;42.50;;;24.50;;
50301;SDS011;36550;50.472;19.744;2023-05-25T03:35:02;36.50;;;22.30;;
50301;SDS011;36550;50.472;19.744;2023-05-25T03:40:31;34.10;;;20.20;;
50301;SDS011;36550;50.472;19.744;2023-05-25T03:43:15;29.90;;;19.60;;
50301;SDS011;36550;50.472;19.744;2023-05-25T03:45:59;33.60;;;19.60;;
50301;SDS011;36550;50.472;19.744;2023-05-25T03:48:43;31.90;;;18.90;;
50301;SDS011;36550;50.472;19.744;2023-05-25T03:51:27;37.80;;;18.90;;
50301;SDS011;36550;50.472;19.744;2023-05-25T03:54:12;32.10;;;19.10;;
50301;SDS011;36550;50.472;19.744;2023-05-25T03:56:56;30.90;;;18.00;;
50301;SDS011;36550;50.472;19.744;2023-05-25T03:59:46;31.40;;;19.50;;
50301;SDS011;36550;50.472;19.744;2023-05-25T04:02:30;33.80;;;20.20;;
50301;SDS011;36550;50.472;19.744;2023-05-25T04:05:13;38.90;;;22.50;;
50301;SDS011;36550;50.472;19.744;2023-05-25T04:07:57;33.30;;;19.00;;
50301;SDS011;36550;50.472;19.744;2023-05-25T04:10:42;34.60;;;19.90;;
50301;SDS011;36550;50.472;19.744;2023-05-25T04:13:27;32.80;;;19.40;;
50301;SDS011;36550;50.472;19.744;2023-05-25T04:16:11;39.30;;;22.50;;
50301;SDS011;36550;50.472;19.744;2023-05-25T04:18:56;48.10;;;28.40;;
50301;SDS011;36550;50.472;19.744;2023-05-25T04:21:40;55.90;;;30.50;;
50301;SDS011;36550;50.472;19.744;2023-05-25T04:24:23;32.50;;;20.50;;
50301;SDS011;36550;50.472;19.744;2023-05-25T04:27:07;39.20;;;23.70;;
50301;SDS011;36550;50.472;19.744;2023-05-25T04:29:51;35.60;;;20.30;;
50301;SDS011;36550;50.472;19.744;2023-05-25T04:32:36;49.50;;;25.50;;
50301;SDS011;36550;50.472;19.744;2023-05-25T04:35:20;32.00;;;18.70;;
50301;SDS011;36550;50.472;19.744;2023-05-25T04:38:05;32.80;;;20.60;;
50301;SDS011;36550;50.472;19.744;2023-05-25T04:40:50;37.20;;;21.00;;
50301;SDS011;36550;50.472;19.744;2023-05-25T04:43:34;33.60;;;19.00;;
50301;SDS011;36550;50.472;19.744;2023-05-25T04:46:18;32.20;;;19.50;;
50301;SDS011;36550;50.472;19.744;2023-05-25T04:49:02;30.90;;;19.10;;
50301;SDS011;36550;50.472;19.744;2023-05-25T04:51:48;58.40;;;27.80;;
50301;SDS011;36550;50.472;19.744;2023-05-25T04:54:32;48.50;;;24.70;;
50301;SDS011;36550;50.472;19.744;2023-05-25T04:57:17;35.10;;;20.50;;
50301;SDS011;36550;50.472;19.744;2023-05-25T05:00:00;37.70;;;21.70;;
50301;SDS011;36550;50.472;19.744;2023-05-25T05:02:44;44.30;;;24.60;;
50301;SDS011;36550;50.472;19.744;2023-05-25T05:05:28;37.10;;;20.90;;
50301;SDS011;36550;50.472;19.744;2023-05-25T05:08:12;41.50;;;23.90;;
50301;SDS011;36550;50.472;19.744;2023-05-25T05:10:57;39.90;;;22.70;;
50301;SDS011;36550;50.472;19.744;2023-05-25T05:13:40;39.80;;;22.30;;
50301;SDS011;36550;50.472;19.744;2023-05-25T05:16:24;39.80;;;21.90;;
50301;SDS011;36550;50.472;19.744;2023-05-25T05:19:08;41.30;;;23.30;;
50301;SDS011;36550;50.472;19.744;2023-05-25T05:21:53;40.40;;;24.50;;
50301;SDS011;36550;50.472;19.744;2023-05-25T05:24:37;43.00;;;24.20;;
50301;SDS011;36550;50.472;19.744;2023-05-25T05:27:21;38.70;;;21.90;;
50301;SDS011;36550;50.472;19.744;2023-05-25T05:30:05;34.90;;;20.30;;
50301;SDS011;36550;50.472;19.744;2023-05-25T05:32:50;34.60;;;20.90;;
50301;SDS011;36550;50.472;19.744;2023-05-25T05:35:34;42.30;;;24.70;;
50301;SDS011;36550;50.472;19.744;2023-05-25T05:38:18;33.00;;;19.40;;
50301;SDS011;36550;50.472;19.744;2023-05-25T05:41:02;35.60;;;19.30;;
50301;SDS011;36550;50.472;19.744;2023-05-25T05:43:48;34.80;;;18.30;;
50301;SDS011;36550;50.472;19.744;2023-05-25T05:46:31;27.90;;;17.20;;
50301;SDS011;36550;50.472;19.744;2023-05-25T05:49:15;27.50;;;17.30;;
50301;SDS011;36550;50.472;19.744;2023-05-25T05:51:59;29.90;;;17.60;;
50301;SDS011;36550;50.472;19.744;2023-05-25T05:54:43;27.40;;;17.10;;
50301;SDS011;36550;50.472;19.744;2023-05-25T05:57:27;27.50;;;15.20;;
50301;SDS011;36550;50.472;19.744;2023-05-25T06:00:11;25.00;;;15.30;;
50301;SDS011;36550;50.472;19.744;2023-05-25T06:02:56;32.40;;;18.70;;
50301;SDS011;36550;50.472;19.744;2023-05-25T06:05:39;34.60;;;21.30;;
50301;SDS011;36550;50.472;19.744;2023-05-25T06:08:23;32.70;;;19.80;;
50301;SDS011;36550;50.472;19.744;2023-05-25T06:11:08;29.10;;;14.80;;
50301;SDS011;36550;50.472;19.744;2023-05-25T06:13:51;40.20;;;18.20;;
50301;SDS011;36550;50.472;19.744;2023-05-25T06:16:35;52.80;;;23.30;;
50301;SDS011;36550;50.472;19.744;2023-05-25T06:19:19;36.50;;;18.90;;
50301;SDS011;36550;50.472;19.744;2023-05-25T06:22:04;27.00;;;15.60;;
50301;SDS011;36550;50.472;19.744;2023-05-25T06:24:48;25.70;;;14.50;;
50301;SDS011;36550;50.472;19.744;2023-05-25T06:27:32;26.70;;;14.50;;
50301;SDS011;36550;50.472;19.744;2023-05-25T06:30:15;25.60;;;13.90;;
50301;SDS011;36550;50.472;19.744;2023-05-25T06:32:59;23.70;;;14.20;;
50301;SDS011;36550;50.472;19.744;2023-05-25T06:35:43;24.80;;;16.20;;
50301;SDS011;36550;50.472;19.744;2023-05-25T06:38:27;35.80;;;21.00;;
50301;SDS011;36550;50.472;19.744;2023-05-25T06:41:11;33.50;;;20.20;;
50301;SDS011;36550;50.472;19.744;2023-05-25T06:43:57;33.00;;;19.80;;
50301;SDS011;36550;50.472;19.744;2023-05-25T06:46:41;36.70;;;21.60;;
50301;SDS011;36550;50.472;19.744;2023-05-25T06:49:25;40.10;;;21.90;;
50301;SDS011;36550;50.472;19.744;2023-05-25T06:52:09;40.40;;;22.10;;
50301;SDS011;36550;50.472;19.744;2023-05-25T06:54:54;37.90;;;24.10;;
50301;SDS011;36550;50.472;19.744;2023-05-25T06:57:39;36.90;;;23.00;;
50301;SDS011;36550;50.472;19.744;2023-05-25T07:00:23;45.80;;;24.20;;
50301;SDS011;36550;50.472;19.744;2023-05-25T07:03:08;36.40;;;21.40;;
50301;SDS011;36550;50.472;19.744;2023-05-25T07:05:51;30.60;;;17.50;;
50301;SDS011;36550;50.472;19.744;2023-05-25T07:08:36;23.20;;;15.90;;
50301;SDS011;36550;50.472;19.744;2023-05-25T07:11:20;25.20;;;14.60;;
50301;SDS011;36550;50.472;19.744;2023-05-25T07:14:04;30.80;;;17.40;;
50301;SDS011;36550;50.472;19.744;2023-05-25T07:16:48;31.50;;;17.40;;
50301;SDS011;36550;50.472;19.744;2023-05-25T07:19:32;25.00;;;14.10;;
50301;SDS011;36550;50.472;19.744;2023-05-25T07:22:17;21.30;;;13.40;;
50301;SDS011;36550;50.472;19.744;2023-05-25T07:25:01;20.40;;;13.40;;
50301;SDS011;36550;50.472;19.744;2023-05-25T07:27:46;23.60;;;12.90;;
50301;SDS011;36550;50.472;19.744;2023-05-25T07:30:38;21.50;;;14.40;;
50301;SDS011;36550;50.472;19.744;2023-05-25T07:33:22;23.90;;;14.00;;
50301;SDS011;36550;50.472;19.744;2023-05-25T07:36:06;24.80;;;14.60;;
50301;SDS011;36550;50.472;19.744;2023-05-25T07:38:51;20.00;;;13.50;;
50301;SDS011;36550;50.472;19.744;2023-05-25T07:41:35;24.10;;;14.80;;
50301;SDS011;36550;50.472;19.744;2023-05-25T07:44:19;30.30;;;16.30;;
50301;SDS011;36550;50.472;19.744;2023-05-25T07:47:03;26.80;;;15.10;;
50301;SDS011;36550;50.472;19.744;2023-05-25T07:49:47;26.70;;;15.40;;
50301;SDS011;36550;50.472;19.744;2023-05-25T07:52:31;32.70;;;16.90;;
50301;SDS011;36550;50.472;19.744;2023-05-25T07:55:15;28.30;;;15.70;;
50301;SDS011;36550;50.472;19.744;2023-05-25T07:57:59;25.70;;;14.80;;
50301;SDS011;36550;50.472;19.744;2023-05-25T08:00:43;27.40;;;16.50;;
50301;SDS011;36550;50.472;19.744;2023-05-25T08:03:27;25.20;;;14.80;;
50301;SDS011;36550;50.472;19.744;2023-05-25T08:06:11;24.10;;;14.80;;
50301;SDS011;36550;50.472;19.744;2023-05-25T08:08:55;22.70;;;14.50;;
50301;SDS011;36550;50.472;19.744;2023-05-25T08:11:39;24.80;;;15.50;;
50301;SDS011;36550;50.472;19.744;2023-05-25T08:14:23;25.20;;;15.30;;
50301;SDS011;36550;50.472;19.744;2023-05-25T08:17:07;23.90;;;15.30;;
50301;SDS011;36550;50.472;19.744;2023-05-25T08:19:52;25.60;;;16.00;;
50301;SDS011;36550;50.472;19.744;2023-05-25T08:22:37;25.10;;;16.30;;
50301;SDS011;36550;50.472;19.744;2023-05-25T08:25:21;30.00;;;18.10;;
50301;SDS011;36550;50.472;19.744;2023-05-25T08:28:05;26.20;;;16.90;;
50301;SDS011;36550;50.472;19.744;2023-05-25T08:30:49;26.00;;;14.80;;
50301;SDS011;36550;50.472;19.744;2023-05-25T08:33:33;28.90;;;16.90;;
50301;SDS011;36550;50.472;19.744;2023-05-25T08:36:17;30.20;;;18.70;;
50301;SDS011;36550;50.472;19.744;2023-05-25T08:39:01;28.20;;;18.50;;
50301;SDS011;36550;50.472;19.744;2023-05-25T08:41:45;29.30;;;17.70;;
50301;SDS011;36550;50.472;19.744;2023-05-25T08:44:30;26.40;;;15.60;;
50301;SDS011;36550;50.472;19.744;2023-05-25T08:47:15;25.30;;;15.90;;
50301;SDS011;36550;50.472;19.744;2023-05-25T08:50:00;22.20;;;14.90;;
50301;SDS011;36550;50.472;19.744;2023-05-25T08:52:46;21.20;;;13.30;;
50301;SDS011;36550;50.472;19.744;2023-05-25T08:55:34;25.00;;;14.60;;
50301;SDS011;36550;50.472;19.744;2023-05-25T08:58:22;19.70;;;13.90;;
50301;SDS011;36550;50.472;19.744;2023-05-25T09:01:14;24.90;;;15.00;;
50301;SDS011;36550;50.472;19.744;2023-05-25T09:04:03;21.10;;;15.70;;
50301;SDS011;36550;50.472;19.744;2023-05-25T09:06:48;21.20;;;14.00;;
50301;SDS011;36550;50.472;19.744;2023-05-25T09:09:31;22.50;;;14.50;;
50301;SDS011;36550;50.472;19.744;2023-05-25T09:12:18;18.80;;;13.60;;
50301;SDS011;36550;50.472;19.744;2023-05-25T09:15:03;16.30;;;12.20;;
50301;SDS011;36550;50.472;19.744;2023-05-25T09:17:47;14.20;;;11.80;;
50301;SDS011;36550;50.472;19.744;2023-05-25T09:20:31;21.40;;;14.20;;
50301;SDS011;36550;50.472;19.744;2023-05-25T09:23:16;22.90;;;15.60;;
50301;SDS011;36550;50.472;19.744;2023-05-25T09:26:00;23.10;;;15.70;;
50301;SDS011;36550;50.472;19.744;2023-05-25T09:28:44;19.80;;;13.80;;
50301;SDS011;36550;50.472;19.744;2023-05-25T09:31:30;25.40;;;15.90;;
50301;SDS011;36550;50.472;19.744;2023-05-25T09:34:14;19.40;;;14.40;;
50301;SDS011;36550;50.472;19.744;2023-05-25T09:36:59;23.00;;;14.90;;
50301;SDS011;36550;50.472;19.744;2023-05-25T09:39:46;27.70;;;16.60;;
50301;SDS011;36550;50.472;19.744;2023-05-25T09:42:31;31.70;;;18.80;;
50301;SDS011;36550;50.472;19.744;2023-05-25T09:45:15;27.50;;;18.80;;
50301;SDS011;36550;50.472;19.744;2023-05-25T09:47:59;26.20;;;17.80;;
50301;SDS011;36550;50.472;19.744;2023-05-25T09:50:43;25.20;;;18.20;;
50301;SDS011;36550;50.472;19.744;2023-05-25T09:53:28;32.40;;;18.90;;
50301;SDS011;36550;50.472;19.744;2023-05-25T09:56:12;26.40;;;17.90;;
50301;SDS011;36550;50.472;19.744;2023-05-25T09:58:56;27.20;;;17.50;;
50301;SDS011;36550;50.472;19.744;2023-05-25T10:01:40;26.20;;;18.80;;
50301;SDS011;36550;50.472;19.744;2023-05-25T10:04:25;27.80;;;18.60;;
50301;SDS011;36550;50.472;19.744;2023-05-25T10:07:08;27.90;;;18.80;;
50301;SDS011;36550;50.472;19.744;2023-05-25T10:09:53;32.60;;;21.30;;
50301;SDS011;36550;50.472;19.744;2023-05-25T10:12:38;28.50;;;19.40;;
50301;SDS011;36550;50.472;19.744;2023-05-25T10:15:24;31.60;;;20.70;;
50301;SDS011;36550;50.472;19.744;2023-05-25T10:18:08;34.20;;;21.40;;
50301;SDS011;36550;50.472;19.744;2023-05-25T10:20:59;33.00;;;22.20;;
50301;SDS011;36550;50.472;19.744;2023-05-25T10:23:49;30.70;;;20.80;;
50301;SDS011;36550;50.472;19.744;2023-05-25T10:26:37;28.90;;;19.70;;
50301;SDS011;36550;50.472;19.744;2023-05-25T10:29:24;29.70;;;20.30;;
50301;SDS011;36550;50.472;19.744;2023-05-25T10:32:10;26.90;;;19.10;;
50301;SDS011;36550;50.472;19.744;2023-05-25T10:34:56;31.40;;;20.10;;
50301;SDS011;36550;50.472;19.744;2023-05-25T10:37:41;26.90;;;19.50;;
50301;SDS011;36550;50.472;19.744;2023-05-25T10:40:26;22.90;;;16.80;;
50301;SDS011;36550;50.472;19.744;2023-05-25T10:43:10;29.90;;;20.70;;
50301;SDS011;36550;50.472;19.744;2023-05-25T10:45:55;33.40;;;22.20;;
50301;SDS011;36550;50.472;19.744;2023-05-25T10:48:46;26.40;;;18.60;;
50301;SDS011;36550;50.472;19.744;2023-05-25T10:51:38;28.40;;;19.70;;
50301;SDS011;36550;50.472;19.744;2023-05-25T10:54:27;30.00;;;20.40;;
50301;SDS011;36550;50.472;19.744;2023-05-25T10:57:20;32.00;;;20.40;;
50301;SDS011;36550;50.472;19.744;2023-05-25T11:00:05;27.30;;;19.10;;
50301;SDS011;36550;50.472;19.744;2023-05-25T11:02:51;26.70;;;18.80;;
50301;SDS011;36550;50.472;19.744;2023-05-25T11:05:38;28.60;;;19.50;;
50301;SDS011;36550;50.472;19.744;2023-05-25T11:08:22;24.90;;;18.40;;
50301;SDS011;36550;50.472;19.744;2023-05-25T11:11:06;28.80;;;19.00;;
50301;SDS011;36550;50.472;19.744;2023-05-25T11:13:49;37.60;;;24.10;;
50301;SDS011;36550;50.472;19.744;2023-05-25T11:16:34;31.40;;;21.40;;
50301;SDS011;36550;50.472;19.744;2023-05-25T11:19:22;28.30;;;19.30;;
50301;SDS011;36550;50.472;19.744;2023-05-25T11:22:52;35.30;;;24.20;;
50301;SDS011;36550;50.472;19.744;2023-05-25T11:28:17;34.80;;;21.60;;
50301;SDS011;36550;50.472;19.744;2023-05-25T11:31:01;36.80;;;22.70;;
50301;SDS011;36550;50.472;19.744;2023-05-25T11:33:49;34.90;;;21.50;;
50301;SDS011;36550;50.472;19.744;2023-05-25T11:36:39;40.10;;;23.70;;
50301;SDS011;36550;50.472;19.744;2023-05-25T11:39:24;32.90;;;21.50;;
50301;SDS011;36550;50.472;19.744;2023-05-25T11:42:08;34.80;;;22.30;;
50301;SDS011;36550;50.472;19.744;2023-05-25T11:44:54;39.30;;;22.40;;
50301;SDS011;36550;50.472;19.744;2023-05-25T11:47:38;45.30;;;25.30;;
50301;SDS011;36550;50.472;19.744;2023-05-25T11:50:22;33.60;;;20.90;;
50301;SDS011;36550;50.472;19.744;2023-05-25T11:53:06;29.80;;;20.20;;
50301;SDS011;36550;50.472;19.744;2023-05-25T11:55:50;35.80;;;24.10;;
50301;SDS011;36550;50.472;19.744;2023-05-25T11:58:34;34.70;;;23.40;;
50301;SDS011;36550;50.472;19.744;2023-05-25T12:01:19;36.30;;;24.00;;
50301;SDS011;36550;50.472;19.744;2023-05-25T12:04:08;37.00;;;21.40;;
50301;SDS011;36550;50.472;19.744;2023-05-25T12:07:03;32.40;;;20.60;;
50301;SDS011;36550;50.472;19.744;2023-05-25T12:09:48;33.30;;;21.60;;
50301;SDS011;36550;50.472;19.744;2023-05-25T12:15:32;26.70;;;19.10;;
50301;SDS011;36550;50.472;19.744;2023-05-25T12:18:16;33.00;;;23.10;;
50301;SDS011;36550;50.472;19.744;2023-05-25T12:21:00;29.50;;;20.70;;
50301;SDS011;36550;50.472;19.744;2023-05-25T12:23:44;29.70;;;21.60;;
50301;SDS011;36550;50.472;19.744;2023-05-25T12:26:28;36.20;;;24.90;;
50301;SDS011;36550;50.472;19.744;2023-05-25T12:29:12;25.20;;;18.90;;
50301;SDS011;36550;50.472;19.744;2023-05-25T12:32:02;25.70;;;18.00;;
50301;SDS011;36550;50.472;19.744;2023-05-25T12:34:47;27.70;;;19.60;;
50301;SDS011;36550;50.472;19.744;2023-05-25T12:37:31;26.30;;;18.50;;
50301;SDS011;36550;50.472;19.744;2023-05-25T12:40:16;22.80;;;18.00;;
50301;SDS011;36550;50.472;19.744;2023-05-25T12:43:05;24.90;;;18.00;;
50301;SDS011;36550;50.472;19.744;2023-05-25T12:45:50;24.50;;;18.00;;
50301;SDS011;36550;50.472;19.744;2023-05-25T12:48:34;24.70;;;17.80;;
50301;SDS011;36550;50.472;19.744;2023-05-25T12:51:18;22.30;;;16.50;;
50301;SDS011;36550;50.472;19.744;2023-05-25T12:54:02;19.20;;;15.40;;
50301;SDS011;36550;50.472;19.744;2023-05-25T12:56:52;23.90;;;16.40;;
50301;SDS011;36550;50.472;19.744;2023-05-25T12:59:43;20.70;;;15.40;;
50301;SDS011;36550;50.472;19.744;2023-05-25T13:02:28;21.90;;;17.10;;
50301;SDS011;36550;50.472;19.744;2023-05-25T13:08:12;21.40;;;16.50;;
50301;SDS011;36550;50.472;19.744;2023-05-25T13:10:56;21.10;;;15.80;;
50301;SDS011;36550;50.472;19.744;2023-05-25T13:13:40;19.60;;;14.80;;
50301;SDS011;36550;50.472;19.744;2023-05-25T13:16:24;20.50;;;14.10;;
50301;SDS011;36550;50.472;19.744;2023-05-25T13:19:08;14.30;;;12.80;;
50301;SDS011;36550;50.472;19.744;2023-05-25T13:21:52;16.90;;;13.40;;
50301;SDS011;36550;50.472;19.744;2023-05-25T13:24:38;16.40;;;13.50;;
50301;SDS011;36550;50.472;19.744;2023-05-25T13:27:22;19.30;;;14.80;;
50301;SDS011;36550;50.472;19.744;2023-05-25T13:30:06;18.50;;;14.30;;
50301;SDS011;36550;50.472;19.744;2023-05-25T13:32:51;20.10;;;14.10;;
50301;SDS011;36550;50.472;19.744;2023-05-25T13:35:35;17.30;;;13.80;;
50301;SDS011;36550;50.472;19.744;2023-05-25T13:38:28;17.40;;;13.60;;
50301;SDS011;36550;50.472;19.744;2023-05-25T13:41:12;17.10;;;13.70;;
50301;SDS011;36550;50.472;19.744;2023-05-25T13:43:57;17.90;;;13.40;;
50301;SDS011;36550;50.472;19.744;2023-05-25T13:46:41;18.50;;;14.00;;
50301;SDS011;36550;50.472;19.744;2023-05-25T13:49:25;17.00;;;13.90;;
50301;SDS011;36550;50.472;19.744;2023-05-25T13:52:09;20.00;;;15.40;;
50301;SDS011;36550;50.472;19.744;2023-05-25T13:54:53;18.80;;;15.80;;
50301;SDS011;36550;50.472;19.744;2023-05-25T13:57:37;19.80;;;15.60;;
50301;SDS011;36550;50.472;19.744;2023-05-25T14:00:21;19.40;;;16.60;;
50301;SDS011;36550;50.472;19.744;2023-05-25T14:03:05;23.10;;;17.90;;
50301;SDS011;36550;50.472;19.744;2023-05-25T14:05:49;24.30;;;19.70;;
50301;SDS011;36550;50.472;19.744;2023-05-25T14:08:33;29.00;;;20.10;;
50301;SDS011;36550;50.472;19.744;2023-05-25T14:11:17;21.90;;;16.00;;
50301;SDS011;36550;50.472;19.744;2023-05-25T14:14:01;24.70;;;18.00;;
50301;SDS011;36550;50.472;19.744;2023-05-25T14:16:46;24.40;;;19.50;;
50301;SDS011;36550;50.472;19.744;2023-05-25T14:19:29;23.10;;;19.60;;
50301;SDS011;36550;50.472;19.744;2023-05-25T14:22:13;25.90;;;20.30;;
50301;SDS011;36550;50.472;19.744;2023-05-25T14:24:57;24.80;;;19.90;;
50301;SDS011;36550;50.472;19.744;2023-05-25T14:27:41;23.20;;;18.40;;
50301;SDS011;36550;50.472;19.744;2023-05-25T14:30:25;24.00;;;18.40;;
50301;SDS011;36550;50.472;19.744;2023-05-25T14:33:09;25.40;;;19.40;;
50301;SDS011;36550;50.472;19.744;2023-05-25T14:35:56;22.40;;;15.80;;
50301;SDS011;36550;50.472;19.744;2023-05-25T14:38:40;19.40;;;15.30;;
50301;SDS011;36550;50.472;19.744;2023-05-25T14:41:24;21.60;;;16.90;;
50301;SDS011;36550;50.472;19.744;2023-05-25T14:44:08;23.20;;;16.40;;
50301;SDS011;36550;50.472;19.744;2023-05-25T14:46:53;19.70;;;15.60;;
50301;SDS011;36550;50.472;19.744;2023-05-25T14:49:37;21.90;;;16.70;;
50301;SDS011;36550;50.472;19.744;2023-05-25T14:52:21;20.70;;;16.30;;
50301;SDS011;36550;50.472;19.744;2023-05-25T14:55:05;20.90;;;16.70;;
50301;SDS011;36550;50.472;19.744;2023-05-25T14:57:50;24.80;;;20.50;;
50301;SDS011;36550;50.472;19.744;2023-05-25T15:00:33;23.70;;;18.70;;
50301;SDS011;36550;50.472;19.744;2023-05-25T15:03:17;20.40;;;16.20;;
50301;SDS011;36550;50.472;19.744;2023-05-25T15:06:01;30.40;;;20.60;;
50301;SDS011;36550;50.472;19.744;2023-05-25T15:08:45;30.10;;;19.60;;
50301;SDS011;36550;50.472;19.744;2023-05-25T15:11:28;29.70;;;20.60;;
50301;SDS011;36550;50.472;19.744;2023-05-25T15:14:12;29.50;;;17.00;;
50301;SDS011;36550;50.472;19.744;2023-05-25T15:16:57;25.70;;;17.20;;
50301;SDS011;36550;50.472;19.744;2023-05-25T15:19:40;22.00;;;15.90;;
50301;SDS011;36550;50.472;19.744;2023-05-25T15:22:24;19.00;;;14.80;;
50301;SDS011;36550;50.472;19.744;2023-05-25T15:25:08;17.70;;;14.60;;
50301;SDS011;36550;50.472;19.744;2023-05-25T15:27:53;21.00;;;15.60;;
50301;SDS011;36550;50.472;19.744;2023-05-25T15:30:36;18.10;;;14.40;;
50301;SDS011;36550;50.472;19.744;2023-05-25T15:33:20;22.80;;;15.60;;
50301;SDS011;36550;50.472;19.744;2023-05-25T15:36:04;19.80;;;15.70;;
50301;SDS011;36550;50.472;19.744;2023-05-25T15:38:48;19.80;;;15.50;;
50301;SDS011;36550;50.472;19.744;2023-05-25T15:41:32;23.20;;;17.50;;
50301;SDS011;36550;50.472;19.744;2023-05-25T15:44:17;27.30;;;18.20;;
50301;SDS011;36550;50.472;19.744;2023-05-25T15:47:01;22.50;;;17.10;;
50301;SDS011;36550;50.472;19.744;2023-05-25T15:49:44;20.30;;;15.50;;
50301;SDS011;36550;50.472;19.744;2023-05-25T15:52:28;18.60;;;14.00;;
50301;SDS011;36550;50.472;19.744;2023-05-25T15:55:12;20.80;;;17.20;;
50301;SDS011;36550;50.472;19.744;2023-05-25T15:57:56;22.40;;;16.60;;
50301;SDS011;36550;50.472;19.744;2023-05-25T16:00:40;27.00;;;17.00;;
50301;SDS011;36550;50.472;19.744;2023-05-25T16:03:24;24.10;;;16.40;;
50301;SDS011;36550;50.472;19.744;2023-05-25T16:06:08;27.00;;;20.00;;
50301;SDS011;36550;50.472;19.744;2023-05-25T16:08:53;25.20;;;18.60;;
50301;SDS011;36550;50.472;19.744;2023-05-25T16:11:37;24.10;;;17.00;;
50301;SDS011;36550;50.472;19.744;2023-05-25T16:14:21;29.80;;;19.00;;